Nearby METAR (Airport) Reports

 

KPRN - Greenville, Alabama, USA
Distance from station: WNW 17mi, 28km
Updated: Thu, 24-Sep-2020 4:58am CDT
Overcast
Overcast
 Wind from ESE
Wind: ESE 7 mph , 11 km/h
Temperature: 70°F , 21°C
Dew Point: 59°F , 15°C
Humidity: 69%
Barometer: 29.87 inHg , 1011.5 hPa
Clouds: Overcast
Visibility: 10 miles , 16 km
Cloud details: Mostly cloudy 4100 ft
Overcast 6000 ft
2020/09/24 09:58 KPRN 240958Z AUTO 12006KT 10SM BKN041 OVC060 21/15 A2987 RMK AO2 SLP059 T02110150
KTOI - Troy, Alabama, USA
Distance from station: ENE 21mi, 34km
Updated: Thu, 24-Sep-2020 4:53am CDT
Mostly cloudy
Mostly cloudy
 Wind from SE
Wind: SE 8 mph , 13 km/h
Temperature: 70°F , 21°C
Dew Point: 61°F , 16°C
Humidity: 73%
Barometer: 29.89 inHg , 1012.2 hPa
Clouds: Mostly cloudy
Visibility: 10 miles , 16 km
Cloud details: Mostly cloudy 5500 ft
2020/09/24 09:53 KTOI 240953Z AUTO 13007KT 10SM BKN055 21/16 A2989 RMK AO2 SLP116 T02110161
K79J - Andalusia/Opp Ar, Alabama, USA
Distance from station: S 29mi, 47km
Updated: Thu, 24-Sep-2020 4:56am CDT
Overcast
Overcast
 Wind from ESE
Wind: ESE 8 mph , 13 km/h
Temperature: 73°F , 23°C
Dew Point: 63°F , 17°C
Humidity: 69%
Barometer: 29.87 inHg , 1011.5 hPa
Clouds: Overcast
Visibility: 10 miles , 16 km
Cloud details: Mostly cloudy 4400 ft
Overcast 6500 ft
2020/09/24 09:56 K79J 240956Z AUTO 12007KT 10SM BKN044 OVC065 23/17 A2987 RMK AO2 RAB14E23 SLP110 P0000 T02280167
 
KMGM - Montgomery, Alabama, USA
Distance from station: N 39mi, 63km
Updated: Thu, 24-Sep-2020 4:53am CDT
Overcast
Overcast
 Wind from E
Wind: E 7 mph , 11 km/h
Temperature: 70°F , 21°C
Dew Point: 61°F , 16°C
Humidity: 73%
Barometer: 29.89 inHg , 1012.2 hPa
Clouds: Overcast
Visibility: 10 miles , 16 km
Cloud details: Overcast 5500 ft
2020/09/24 09:53 KMGM 240953Z AUTO 09006KT 10SM OVC055 21/16 A2989 RMK AO2 SLP119 T02110156
KMXF - Maxwell Afb/Mgm, Alabama, USA
Distance from station: N 44mi, 70km
Updated: Thu, 24-Sep-2020 4:56am CDT
Overcast
Overcast
 Wind from E
Wind: E 8 mph , 13 km/h
Temperature: 72°F , 22°C
Dew Point: 59°F , 15°C
Humidity: 65%
Barometer: 29.89 inHg , 1012.2 hPa
Clouds: Overcast
Visibility: 10 miles , 16 km
Cloud details: Overcast 5500 ft
2020/09/24 09:56 KMXF 240956Z AUTO 10007KT 10SM OVC055 22/15 A2989 RMK AO2 SLP123 T02150146
KLOR - Lowe Ahp/Ft. Ruc, Alabama, USA
Distance from station: SE 44mi, 71km
Updated: Thu, 24-Sep-2020 4:58am CDT
Overcast
Overcast
 Wind from ESE
Wind: ESE 5 mph , 7 km/h
Temperature: 70°F , 21°C
Dew Point: 63°F , 17°C
Humidity: 78%
Barometer: 29.89 inHg , 1012.2 hPa
Clouds: Overcast
Visibility: 9 miles , 14 km
Cloud details: Few Clouds 5500 ft
Overcast 8000 ft
2020/09/24 09:58 KLOR 240958Z AUTO 12004KT 9SM FEW055 OVC080 21/17 A2989 RMK AO2 SLP103 T02090169
 
KGZH - Evergreen, Alabama, USA
Distance from station: WSW 46mi, 75km
Updated: Thu, 24-Sep-2020 4:53am CDT
Overcast
Overcast
 Wind from ESE
Wind: ESE 7 mph , 11 km/h
Temperature: 70°F , 21°C
Dew Point: 66°F , 19°C
Humidity: 88%
Barometer: 29.84 inHg , 1010.5 hPa
Clouds: Overcast
Visibility: 10 miles , 16 km
Cloud details: Few Clouds 3100 ft
Mostly cloudy 4600 ft
Overcast 6000 ft
2020/09/24 09:53 KGZH 240953Z AUTO 11006KT 10SM FEW031 BKN046 OVC060 21/19 A2984 RMK AO2 RAB02E52 SLP102 P0012 T02110189 $
K0J4 - Florala Muni, Alabama, USA
Distance from station: S 47mi, 76km
Updated: Thu, 24-Sep-2020 3:58am CDT
NOT Current
Overcast
Overcast
 Wind from varies
Wind: varies 5 mph , 7 km/h
Temperature: 72°F , 22°C
Dew Point: 61°F , 16°C
Humidity: 69%
Barometer: 29.90 inHg , 1012.5 hPa
Clouds: Overcast
Visibility: 10 miles , 16 km
Cloud details: Mostly cloudy 4500 ft
Overcast 6000 ft
2020/09/24 08:58 K0J4 240858Z AUTO VRB04KT 10SM BKN045 OVC060 22/16 A2990 RMK AO2 SLP120 T02220161 56015
KOZR - Ozark/Cairns Aaf, Alabama, USA
Distance from station: SE 49mi, 78km
Updated: Thu, 24-Sep-2020 4:56am CDT
Overcast
Overcast
 Wind from ESE
Wind: ESE 7 mph , 11 km/h
Temperature: 70°F , 21°C
Dew Point: 63°F , 17°C
Humidity: 78%
Barometer: 29.89 inHg , 1012.2 hPa
Clouds: Overcast
Visibility: 10 miles , 16 km
Cloud details: Mostly cloudy 5000 ft
Overcast 8000 ft
2020/09/24 09:56 KOZR 240956Z AUTO 11006KT 10SM BKN050 OVC080 21/17 A2989 RMK AO2 SLP121 T02100170 $
 
KHEY - Ft Rucker/Hanche, Alabama, USA
Distance from station: ESE 49mi, 79km
Updated: Thu, 24-Sep-2020 4:58am CDT
Overcast
Overcast
 Wind from ESE
Wind: ESE 10 mph , 17 km/h
Temperature: 70°F , 21°C
Dew Point: 63°F , 17°C
Humidity: 78%
Barometer: 29.88 inHg , 1011.9 hPa
Clouds: Overcast
Visibility: 10 miles , 16 km
Cloud details: Few Clouds 5500 ft
Overcast 8000 ft
2020/09/24 09:58 KHEY 240958Z AUTO 12009KT 10SM FEW055 OVC080 21/17 A2988 RMK AO2 SLP118 T02100173
KDHN - Dothan, Alabama, USA
Distance from station: ESE 61mi, 97km
Updated: Thu, 24-Sep-2020 4:53am CDT
Mostly cloudy
Mostly cloudy
 Wind from ESE
Wind: ESE 9 mph , 15 km/h
Temperature: 70°F , 21°C
Dew Point: 63°F , 17°C
Humidity: 78%
Barometer: 29.94 inHg , 1013.9 hPa
Clouds: Mostly cloudy
Visibility: 10 miles , 16 km
Cloud details: Mostly cloudy 6000 ft
2020/09/24 09:53 KDHN 240953Z AUTO 11008KT 10SM BKN060 21/17 A2994 RMK AO2 SLP133 T02060172
KCEW - Crestview, Florida, USA
Distance from station: S 66mi, 107km
Updated: Thu, 24-Sep-2020 4:53am CDT
Overcast
Overcast
 Wind from ESE
Wind: ESE 9 mph , 15 km/h
Temperature: 73°F , 23°C
Dew Point: 64°F , 18°C
Humidity: 74%
Barometer: 29.87 inHg , 1011.5 hPa
Clouds: Overcast
Visibility: 10 miles , 16 km
Cloud details: Few Clouds 2200 ft
Mostly cloudy 3000 ft
Overcast 3900 ft
2020/09/24 09:53 KCEW 240953Z AUTO 12008KT 10SM FEW022 BKN030 OVC039 23/18 A2987 RMK AO2 SLP112 T02280178
 
KEUF - Eufaula, Alabama, USA
Distance from station: ENE 73mi, 118km
Updated: Mon, 04-Mar-2019 12:58pm CST
NOT Current

 
Barometer: 30.10 inHg , 1019.3 hPa
2019/03/04 18:58 KEUF 041858Z AUTO A3010 RMK AO2 RAEMM TSB02B32 SLPNO PWINO FZRANO TSNO $
KJKA - Gulf Shores, Alabama, USA
Distance from station: SSW 132mi, 212km
Updated: Tue, 15-Sep-2020 10:35pm CDT
NOT Current
Heavy rain
Heavy rain
 
Temperature: 73°F , 23°C
Dew Point: 73°F , 23°C
Humidity: 100%
Barometer: 29.46 inHg , 997.6 hPa
Summary: Heavy rain
Visibility: 1 3/4 miles , 2.8 km
2020/09/16 03:35 KJKA 160335Z AUTO 1 3/4SM +RA 23/23 A2946 RMK AO2 P0033 T02340230
KLSF - Ft Benning/Colum, Georgia, USA
Distance from station: SNE 89mi, 143km
Updated: Thu, 24-Sep-2020 4:56am CDT
Overcast
Overcast
 Wind from calm
Wind: Calm
Temperature: 63°F , 17°C
Dew Point: 61°F , 16°C
Humidity: 94%
Barometer: 29.94 inHg , 1013.9 hPa
Clouds: Overcast
Visibility: 10 miles , 16 km
Cloud details: Mostly cloudy 5000 ft
Overcast 8000 ft
2020/09/24 09:56 KLSF 240956Z AUTO 00000KT 10SM BKN050 OVC080 17/16 A2994 RMK AO2 SLP142 T01730161 CHINO RWY15 $
 
KMOB - Mobile/Bates, Alabama, USA
Distance from station: SW 125mi, 202km
Updated: Thu, 24-Sep-2020 4:56am CDT
Overcast
Overcast
 Wind from SE
Wind: SE 10 mph , 17 km/h
Temperature: 75°F , 24°C
Dew Point: 73°F , 23°C
Humidity: 94%
Barometer: 29.79 inHg , 1008.8 hPa
Clouds: Overcast
Visibility: 10 miles , 16 km
Cloud details: Mostly cloudy 600 ft
Overcast 1100 ft
2020/09/24 09:56 KMOB 240956Z AUTO 14009KT 10SM BKN006 OVC011 24/23 A2979 RMK AO2 SLP082 T02390233
KNMM - Meridian Nas, Mississippi, USA
Distance from station: WNW 151mi, 243km
Updated: Thu, 24-Sep-2020 4:56am CDT
Light rain, Mist, Overcast
Light rain, Mist, Overcast
 Wind from E
Wind: E 15 mph , 24 km/h, Gust: 25 mph , 41 km/h
Temperature: 68°F , 20°C
Dew Point: 66°F , 19°C
Humidity: 94%
Barometer: 29.78 inHg , 1008.5 hPa
Summary: Light rain, Mist
Clouds: Overcast
Visibility: 6 miles , 10 km
Cloud details: Mostly cloudy 600 ft
Overcast 1200 ft
2020/09/24 09:56 KNMM 240956Z AUTO 10013G22KT 6SM -RA BR BKN006 OVC012 20/19 A2978 RMK AO2 RAE00B17 SLP090 P0002 T02000194 $
KQHY - Hurlbert (Ft Walton Bch), Florida, USA
Distance from station: S 94mi, 151km
Updated: Thu, 24-Sep-2020 4:56am CDT
Overcast
Overcast
 Wind from SE
Wind: SE 6 mph , 9 km/h
Temperature: 79°F , 26°C
Dew Point: 72°F , 22°C
Humidity: 79%
Barometer: 29.83 inHg , 1010.2 hPa
Clouds: Overcast
Visibility: 10 miles , 16 km
Cloud details: Mostly cloudy 3600 ft
Overcast 4600 ft
2020/09/24 09:56 KQHY 240956Z AUTO 13005KT 10SM BKN036 OVC046 26/22 A2983 RMK AO2 RAB10E19DZB19E27DZB27E27 SLPNO P0000 T02580218 $
 
KTCL - Tuscaloosa, Alabama, USA
Distance from station: NNW 129mi, 207km
Updated: Thu, 24-Sep-2020 4:53am CDT
Mostly cloudy
Mostly cloudy
 Wind from E
Wind: E 7 mph , 11 km/h
Temperature: 64°F , 18°C
Dew Point: 64°F , 18°C
Humidity: 100%
Barometer: 29.88 inHg , 1011.9 hPa
Clouds: Mostly cloudy
Visibility: 10 miles , 16 km
Cloud details: Partly cloudy 5000 ft
Mostly cloudy 6000 ft
2020/09/24 09:53 KTCL 240953Z AUTO 08006KT 10SM SCT050 BKN060 18/18 A2988 RMK AO2 SLP117 T01830178
KECP - Panama City, Florida, USA
Distance from station: SSE 122mi, 196km
Updated: Thu, 24-Sep-2020 4:53am CDT
Light rain, Overcast
Light rain, Overcast
 Wind from E
Wind: E 8 mph , 13 km/h
Temperature: 73°F , 23°C
Dew Point: 66°F , 19°C
Humidity: 78%
Barometer: 29.87 inHg , 1011.5 hPa
Summary: Light rain
Clouds: Overcast
Visibility: 10 miles , 16 km
Cloud details: Mostly cloudy 6500 ft
Overcast 8000 ft
2020/09/24 09:53 KECP 240953Z AUTO 09007KT 10SM -RA BKN065 OVC080 23/19 A2987 RMK AO2 RAB53 SLP125 P0000 T02280194
KCBM - Columbus Afb, Mississippi, USA
Distance from station: NW 175mi, 282km
Updated: Thu, 24-Sep-2020 4:56am CDT
Light rain, Partly cloudy
Light rain, Partly cloudy
 Wind from E
Wind: E 8 mph , 13 km/h
Temperature: 59°F , 15°C
Dew Point: 57°F , 14°C
Humidity: 94%
Barometer: 29.86 inHg , 1011.2 hPa
Summary: Light rain
Clouds: Partly cloudy
Visibility: 10 miles , 16 km
Cloud details: Partly cloudy 700 ft
2020/09/24 09:56 KCBM 240956Z AUTO 08007KT 10SM -RA SCT007 15/14 A2986 RMK AO2 RAE12DZB12E15RAB15 SLP113 P0007 T01530142 $
 
KBHM - Birmingham, Alabama, USA
Distance from station: N 132mi, 212km
Updated: Thu, 24-Sep-2020 4:53am CDT
Light rain, Overcast
Light rain, Overcast
 Wind from E
Wind: E 8 mph , 13 km/h
Temperature: 61°F , 16°C
Dew Point: 57°F , 14°C
Humidity: 88%
Barometer: 29.96 inHg , 1014.6 hPa
Summary: Light rain
Clouds: Overcast
Visibility: 8 miles , 13 km
Cloud details: Few Clouds 4800 ft
Mostly cloudy 7000 ft
Overcast 11000 ft
2020/09/24 09:53 KBHM 240953Z 09007KT 8SM -RA FEW048 BKN070 OVC110 16/14 A2996 RMK AO2 RAB0854 SLP139 P0004 T01610139
KAAF - Apalachicola, Florida, USA
Distance from station: SSE 156mi, 250km
Updated: Thu, 24-Sep-2020 4:53am CDT
Clear
Clear
 Wind from SE
Wind: SE 7 mph , 11 km/h
Temperature: 79°F , 26°C
Dew Point: 73°F , 23°C
Humidity: 84%
Barometer: 29.88 inHg , 1011.9 hPa
Clouds: Clear
Visibility: 10 miles , 16 km
2020/09/24 09:53 KAAF 240953Z AUTO 14006KT 10SM CLR 26/23 A2988 RMK AO2 SLP119 T02610228 $
KATL - Atlanta, Georgia, USA
Distance from station: NE 177mi, 287km
Updated: Thu, 24-Sep-2020 4:52am CDT
Mostly cloudy
Mostly cloudy
 Wind from ESE
Wind: ESE 8 mph , 13 km/h
Temperature: 64°F , 18°C
Dew Point: 61°F , 16°C
Humidity: 88%
Barometer: 30.00 inHg , 1015.9 hPa
Clouds: Mostly cloudy
Visibility: 10 miles , 16 km
Cloud details: Partly cloudy 12000 ft
Mostly cloudy 18000 ft
Mostly cloudy 25000 ft
2020/09/24 09:52 KATL 240952Z 11007KT 10SM SCT120 BKN180 BKN250 18/16 A3000 RMK AO2 SLP153 T01830156
 
KGPT - Gulfport, Mississippi, USA
Distance from station: SW 192mi, 309km
Updated: Thu, 24-Sep-2020 5:00am CDT
Overcast
Overcast
 Wind from SSW
Wind: SSW 8 mph , 13 km/h
Temperature: 75°F , 24°C
Dew Point: 73°F , 23°C
Humidity: 94%
Barometer: 29.75 inHg , 1007.5 hPa
Clouds: Overcast
Visibility: 10 miles , 16 km
Cloud details: Partly cloudy 800 ft
Mostly cloudy 1600 ft
Overcast 4500 ft
2020/09/24 10:00 KGPT 241000Z AUTO 21007KT 10SM SCT008 BKN016 OVC045 24/23 A2975 RMK AO2 RAE0957 P0000 T02440228
KNEW - New Orleans/Lake, Louisiana, USA
Distance from station: SW 255mi, 410km
Updated: Thu, 24-Sep-2020 4:53am CDT

 
Barometer: 29.76 inHg , 1007.8 hPa
2020/09/24 09:53 KNEW 240953Z AUTO A2976 RMK AO2 SLP072 PWINO $
KP92 - Salt Point, Louisiana, USA
Distance from station: SW 347mi, 559km
Updated: Thu, 24-Sep-2020 4:59am CDT

 Wind from W
Wind: W 9 mph , 15 km/h
Temperature: 73°F , 23°C
Dew Point: 72°F , 22°C
Humidity: 94%
Barometer: 29.78 inHg , 1008.5 hPa
2020/09/24 09:59 KP92 240959Z AUTO 28008KT 23/22 A2978 RMK AO1 SLP084 T02330217